sensor_id;sensor_type;location;lat;lon;timestamp;P1;durP1;ratioP1;P2;durP2;ratioP2
25111;SDS011;13092;51.996;4.458;2023-07-22T00:01:44;58.88;;;53.97;;
25111;SDS011;13092;51.996;4.458;2023-07-22T00:04:13;59.05;;;54.15;;
25111;SDS011;13092;51.996;4.458;2023-07-22T00:06:41;56.88;;;52.17;;
25111;SDS011;13092;51.996;4.458;2023-07-22T00:09:09;57.40;;;52.88;;
25111;SDS011;13092;51.996;4.458;2023-07-22T00:11:37;57.38;;;52.72;;
25111;SDS011;13092;51.996;4.458;2023-07-22T00:14:05;58.25;;;53.28;;
25111;SDS011;13092;51.996;4.458;2023-07-22T00:16:35;57.55;;;53.08;;
25111;SDS011;13092;51.996;4.458;2023-07-22T00:19:04;57.90;;;53.03;;
25111;SDS011;13092;51.996;4.458;2023-07-22T00:21:33;56.10;;;51.60;;
25111;SDS011;13092;51.996;4.458;2023-07-22T00:24:01;57.30;;;52.60;;
25111;SDS011;13092;51.996;4.458;2023-07-22T00:26:31;56.90;;;52.42;;
25111;SDS011;13092;51.996;4.458;2023-07-22T00:28:59;56.75;;;52.15;;
25111;SDS011;13092;51.996;4.458;2023-07-22T00:31:28;55.97;;;51.58;;
25111;SDS011;13092;51.996;4.458;2023-07-22T00:33:58;55.25;;;50.80;;
25111;SDS011;13092;51.996;4.458;2023-07-22T00:36:27;55.00;;;50.47;;
25111;SDS011;13092;51.996;4.458;2023-07-22T00:38:56;55.22;;;51.00;;
25111;SDS011;13092;51.996;4.458;2023-07-22T00:41:24;54.50;;;50.38;;
25111;SDS011;13092;51.996;4.458;2023-07-22T00:43:52;53.72;;;49.65;;
25111;SDS011;13092;51.996;4.458;2023-07-22T00:46:20;53.70;;;49.60;;
25111;SDS011;13092;51.996;4.458;2023-07-22T00:48:48;53.75;;;49.67;;
25111;SDS011;13092;51.996;4.458;2023-07-22T00:51:19;53.65;;;49.55;;
25111;SDS011;13092;51.996;4.458;2023-07-22T00:53:48;52.20;;;48.20;;
25111;SDS011;13092;51.996;4.458;2023-07-22T00:56:16;51.65;;;47.60;;
25111;SDS011;13092;51.996;4.458;2023-07-22T00:58:44;52.90;;;48.67;;
25111;SDS011;13092;51.996;4.458;2023-07-22T01:01:13;52.53;;;48.63;;
25111;SDS011;13092;51.996;4.458;2023-07-22T01:03:41;52.20;;;48.30;;
25111;SDS011;13092;51.996;4.458;2023-07-22T01:06:10;52.63;;;48.83;;
25111;SDS011;13092;51.996;4.458;2023-07-22T01:08:40;52.47;;;48.55;;
25111;SDS011;13092;51.996;4.458;2023-07-22T01:11:08;52.95;;;49.05;;
25111;SDS011;13092;51.996;4.458;2023-07-22T01:13:36;53.78;;;49.83;;
25111;SDS011;13092;51.996;4.458;2023-07-22T01:16:04;52.80;;;48.95;;
25111;SDS011;13092;51.996;4.458;2023-07-22T01:18:33;52.92;;;48.92;;
25111;SDS011;13092;51.996;4.458;2023-07-22T01:21:01;54.33;;;50.15;;
25111;SDS011;13092;51.996;4.458;2023-07-22T01:23:31;54.58;;;50.47;;
25111;SDS011;13092;51.996;4.458;2023-07-22T01:25:59;52.78;;;48.88;;
25111;SDS011;13092;51.996;4.458;2023-07-22T01:28:28;52.95;;;48.78;;
25111;SDS011;13092;51.996;4.458;2023-07-22T01:30:57;52.45;;;48.55;;
25111;SDS011;13092;51.996;4.458;2023-07-22T01:33:26;52.63;;;48.53;;
25111;SDS011;13092;51.996;4.458;2023-07-22T01:35:54;50.90;;;47.00;;
25111;SDS011;13092;51.996;4.458;2023-07-22T01:38:22;51.25;;;47.28;;
25111;SDS011;13092;51.996;4.458;2023-07-22T01:40:52;52.25;;;48.35;;
25111;SDS011;13092;51.996;4.458;2023-07-22T01:43:20;52.70;;;48.72;;
25111;SDS011;13092;51.996;4.458;2023-07-22T01:45:48;52.90;;;48.80;;
25111;SDS011;13092;51.996;4.458;2023-07-22T01:48:17;52.92;;;48.92;;
25111;SDS011;13092;51.996;4.458;2023-07-22T01:50:45;52.45;;;48.45;;
25111;SDS011;13092;51.996;4.458;2023-07-22T01:53:13;53.20;;;49.25;;
25111;SDS011;13092;51.996;4.458;2023-07-22T01:55:42;53.15;;;49.15;;
25111;SDS011;13092;51.996;4.458;2023-07-22T01:58:12;52.85;;;48.92;;
25111;SDS011;13092;51.996;4.458;2023-07-22T02:00:40;52.00;;;48.08;;
25111;SDS011;13092;51.996;4.458;2023-07-22T02:03:08;51.67;;;47.78;;
25111;SDS011;13092;51.996;4.458;2023-07-22T02:05:37;52.35;;;48.45;;
25111;SDS011;13092;51.996;4.458;2023-07-22T02:08:05;52.22;;;48.42;;
25111;SDS011;13092;51.996;4.458;2023-07-22T02:10:33;50.90;;;47.10;;
25111;SDS011;13092;51.996;4.458;2023-07-22T02:13:01;51.60;;;47.65;;
25111;SDS011;13092;51.996;4.458;2023-07-22T02:15:32;50.10;;;46.40;;
25111;SDS011;13092;51.996;4.458;2023-07-22T02:18:01;48.72;;;45.10;;
25111;SDS011;13092;51.996;4.458;2023-07-22T02:20:29;50.03;;;46.33;;
25111;SDS011;13092;51.996;4.458;2023-07-22T02:22:57;50.50;;;46.90;;
25111;SDS011;13092;51.996;4.458;2023-07-22T02:25:26;50.70;;;47.20;;
25111;SDS011;13092;51.996;4.458;2023-07-22T02:27:54;50.92;;;46.92;;
25111;SDS011;13092;51.996;4.458;2023-07-22T02:30:22;51.47;;;47.78;;
25111;SDS011;13092;51.996;4.458;2023-07-22T02:32:52;52.08;;;48.40;;
25111;SDS011;13092;51.996;4.458;2023-07-22T02:35:20;51.20;;;47.60;;
25111;SDS011;13092;51.996;4.458;2023-07-22T02:37:48;50.10;;;46.58;;
25111;SDS011;13092;51.996;4.458;2023-07-22T02:40:16;49.08;;;45.58;;
25111;SDS011;13092;51.996;4.458;2023-07-22T02:42:44;50.80;;;47.20;;
25111;SDS011;13092;51.996;4.458;2023-07-22T02:45:13;49.08;;;45.58;;
25111;SDS011;13092;51.996;4.458;2023-07-22T02:47:41;50.50;;;47.00;;
25111;SDS011;13092;51.996;4.458;2023-07-22T02:50:10;49.72;;;46.15;;
25111;SDS011;13092;51.996;4.458;2023-07-22T02:52:38;49.22;;;45.58;;
25111;SDS011;13092;51.996;4.458;2023-07-22T02:55:08;50.05;;;46.55;;
25111;SDS011;13092;51.996;4.458;2023-07-22T02:57:38;50.15;;;46.65;;
25111;SDS011;13092;51.996;4.458;2023-07-22T03:00:07;50.22;;;46.55;;
25111;SDS011;13092;51.996;4.458;2023-07-22T03:02:38;49.13;;;45.63;;
25111;SDS011;13092;51.996;4.458;2023-07-22T03:05:07;49.85;;;46.25;;
25111;SDS011;13092;51.996;4.458;2023-07-22T03:07:38;48.03;;;44.63;;
25111;SDS011;13092;51.996;4.458;2023-07-22T03:10:06;49.97;;;46.47;;
25111;SDS011;13092;51.996;4.458;2023-07-22T03:12:35;49.55;;;46.05;;
25111;SDS011;13092;51.996;4.458;2023-07-22T03:15:05;49.53;;;46.13;;
25111;SDS011;13092;51.996;4.458;2023-07-22T03:17:35;49.15;;;45.55;;
25111;SDS011;13092;51.996;4.458;2023-07-22T03:20:04;48.60;;;45.17;;
25111;SDS011;13092;51.996;4.458;2023-07-22T03:22:41;50.35;;;46.65;;
25111;SDS011;13092;51.996;4.458;2023-07-22T03:25:09;50.03;;;46.45;;
25111;SDS011;13092;51.996;4.458;2023-07-22T03:27:38;50.45;;;46.75;;
25111;SDS011;13092;51.996;4.458;2023-07-22T03:30:09;50.00;;;46.60;;
25111;SDS011;13092;51.996;4.458;2023-07-22T03:32:41;49.30;;;45.75;;
25111;SDS011;13092;51.996;4.458;2023-07-22T03:35:09;48.38;;;45.13;;
25111;SDS011;13092;51.996;4.458;2023-07-22T03:37:38;48.97;;;45.58;;
25111;SDS011;13092;51.996;4.458;2023-07-22T03:40:09;48.28;;;44.88;;
25111;SDS011;13092;51.996;4.458;2023-07-22T03:42:43;50.28;;;46.78;;
25111;SDS011;13092;51.996;4.458;2023-07-22T03:45:11;49.80;;;46.22;;
25111;SDS011;13092;51.996;4.458;2023-07-22T03:47:40;49.53;;;46.05;;
25111;SDS011;13092;51.996;4.458;2023-07-22T03:50:08;49.22;;;45.67;;
25111;SDS011;13092;51.996;4.458;2023-07-22T03:52:37;51.75;;;48.20;;
25111;SDS011;13092;51.996;4.458;2023-07-22T03:55:05;51.08;;;47.58;;
25111;SDS011;13092;51.996;4.458;2023-07-22T03:57:35;50.00;;;46.60;;
25111;SDS011;13092;51.996;4.458;2023-07-22T04:00:04;49.40;;;46.00;;
25111;SDS011;13092;51.996;4.458;2023-07-22T04:02:35;50.35;;;46.85;;
25111;SDS011;13092;51.996;4.458;2023-07-22T04:05:04;48.55;;;45.15;;
25111;SDS011;13092;51.996;4.458;2023-07-22T04:07:32;48.88;;;45.47;;
25111;SDS011;13092;51.996;4.458;2023-07-22T04:10:01;50.83;;;47.22;;
25111;SDS011;13092;51.996;4.458;2023-07-22T04:12:30;51.35;;;47.45;;
25111;SDS011;13092;51.996;4.458;2023-07-22T04:14:59;51.65;;;47.95;;
25111;SDS011;13092;51.996;4.458;2023-07-22T04:17:29;52.35;;;48.42;;
25111;SDS011;13092;51.996;4.458;2023-07-22T04:19:57;51.88;;;47.88;;
25111;SDS011;13092;51.996;4.458;2023-07-22T04:22:26;55.42;;;51.03;;
25111;SDS011;13092;51.996;4.458;2023-07-22T04:24:54;55.22;;;51.00;;
25111;SDS011;13092;51.996;4.458;2023-07-22T04:27:23;55.40;;;50.72;;
25111;SDS011;13092;51.996;4.458;2023-07-22T04:29:51;56.72;;;52.13;;
25111;SDS011;13092;51.996;4.458;2023-07-22T04:32:21;56.17;;;51.63;;
25111;SDS011;13092;51.996;4.458;2023-07-22T04:34:49;57.50;;;52.42;;
25111;SDS011;13092;51.996;4.458;2023-07-22T04:37:17;56.85;;;51.75;;
25111;SDS011;13092;51.996;4.458;2023-07-22T04:39:47;57.90;;;52.60;;
25111;SDS011;13092;51.996;4.458;2023-07-22T04:42:16;56.88;;;51.80;;
25111;SDS011;13092;51.996;4.458;2023-07-22T04:44:46;56.58;;;51.67;;
25111;SDS011;13092;51.996;4.458;2023-07-22T04:47:15;57.35;;;52.30;;
25111;SDS011;13092;51.996;4.458;2023-07-22T04:49:44;57.30;;;51.92;;
25111;SDS011;13092;51.996;4.458;2023-07-22T04:52:13;58.25;;;52.92;;
25111;SDS011;13092;51.996;4.458;2023-07-22T04:54:41;57.22;;;51.88;;
25111;SDS011;13092;51.996;4.458;2023-07-22T04:57:09;57.22;;;52.05;;
25111;SDS011;13092;51.996;4.458;2023-07-22T04:59:37;55.22;;;50.15;;
25111;SDS011;13092;51.996;4.458;2023-07-22T05:02:06;56.28;;;51.13;;
25111;SDS011;13092;51.996;4.458;2023-07-22T05:04:34;54.90;;;49.80;;
25111;SDS011;13092;51.996;4.458;2023-07-22T05:07:04;57.22;;;51.88;;
25111;SDS011;13092;51.996;4.458;2023-07-22T05:09:32;57.92;;;51.83;;
25111;SDS011;13092;51.996;4.458;2023-07-22T05:12:00;56.63;;;51.22;;
25111;SDS011;13092;51.996;4.458;2023-07-22T05:14:28;58.70;;;52.95;;
25111;SDS011;13092;51.996;4.458;2023-07-22T05:16:56;57.10;;;51.38;;
25111;SDS011;13092;51.996;4.458;2023-07-22T05:19:25;59.15;;;53.25;;
25111;SDS011;13092;51.996;4.458;2023-07-22T05:21:53;56.70;;;51.30;;
25111;SDS011;13092;51.996;4.458;2023-07-22T05:24:23;58.42;;;52.72;;
25111;SDS011;13092;51.996;4.458;2023-07-22T05:26:51;57.90;;;52.10;;
25111;SDS011;13092;51.996;4.458;2023-07-22T05:29:34;57.08;;;51.33;;
25111;SDS011;13092;51.996;4.458;2023-07-22T05:32:02;54.53;;;49.38;;
25111;SDS011;13092;51.996;4.458;2023-07-22T05:34:39;55.00;;;49.58;;
25111;SDS011;13092;51.996;4.458;2023-07-22T05:37:07;55.63;;;50.47;;
25111;SDS011;13092;51.996;4.458;2023-07-22T05:39:37;56.22;;;50.58;;
25111;SDS011;13092;51.996;4.458;2023-07-22T05:42:05;54.83;;;49.75;;
25111;SDS011;13092;51.996;4.458;2023-07-22T05:44:33;55.95;;;50.53;;
25111;SDS011;13092;51.996;4.458;2023-07-22T05:47:01;55.70;;;50.20;;
25111;SDS011;13092;51.996;4.458;2023-07-22T05:49:30;55.33;;;49.90;;
25111;SDS011;13092;51.996;4.458;2023-07-22T05:51:58;56.22;;;50.60;;
25111;SDS011;13092;51.996;4.458;2023-07-22T05:54:26;53.20;;;48.25;;
25111;SDS011;13092;51.996;4.458;2023-07-22T05:56:56;55.25;;;50.30;;
25111;SDS011;13092;51.996;4.458;2023-07-22T05:59:24;55.25;;;50.00;;
25111;SDS011;13092;51.996;4.458;2023-07-22T06:01:52;53.78;;;48.88;;
25111;SDS011;13092;51.996;4.458;2023-07-22T06:04:20;55.28;;;49.88;;
25111;SDS011;13092;51.996;4.458;2023-07-22T06:06:48;55.80;;;50.10;;
25111;SDS011;13092;51.996;4.458;2023-07-22T06:09:17;54.80;;;49.58;;
25111;SDS011;13092;51.996;4.458;2023-07-22T06:11:46;53.47;;;48.38;;
25111;SDS011;13092;51.996;4.458;2023-07-22T06:14:17;55.05;;;49.83;;
25111;SDS011;13092;51.996;4.458;2023-07-22T06:16:45;56.72;;;50.80;;
25111;SDS011;13092;51.996;4.458;2023-07-22T06:19:14;54.72;;;49.33;;
25111;SDS011;13092;51.996;4.458;2023-07-22T06:21:42;54.33;;;49.53;;
25111;SDS011;13092;51.996;4.458;2023-07-22T06:24:12;54.03;;;49.03;;
25111;SDS011;13092;51.996;4.458;2023-07-22T06:26:41;56.15;;;50.83;;
25111;SDS011;13092;51.996;4.458;2023-07-22T06:29:09;56.00;;;50.72;;
25111;SDS011;13092;51.996;4.458;2023-07-22T06:31:38;54.30;;;49.55;;
25111;SDS011;13092;51.996;4.458;2023-07-22T06:34:17;55.33;;;50.10;;
25111;SDS011;13092;51.996;4.458;2023-07-22T06:36:48;53.85;;;49.22;;
25111;SDS011;13092;51.996;4.458;2023-07-22T06:39:16;54.40;;;49.47;;
25111;SDS011;13092;51.996;4.458;2023-07-22T06:41:48;54.53;;;49.40;;
25111;SDS011;13092;51.996;4.458;2023-07-22T06:44:29;55.97;;;50.60;;
25111;SDS011;13092;51.996;4.458;2023-07-22T06:47:19;54.25;;;49.50;;
25111;SDS011;13092;51.996;4.458;2023-07-22T06:49:58;57.15;;;51.97;;
25111;SDS011;13092;51.996;4.458;2023-07-22T06:52:39;55.15;;;50.30;;
25111;SDS011;13092;51.996;4.458;2023-07-22T06:55:13;56.90;;;51.60;;
25111;SDS011;13092;51.996;4.458;2023-07-22T06:57:41;56.13;;;50.97;;
25111;SDS011;13092;51.996;4.458;2023-07-22T07:00:10;55.00;;;50.17;;
25111;SDS011;13092;51.996;4.458;2023-07-22T07:02:40;55.03;;;49.95;;
25111;SDS011;13092;51.996;4.458;2023-07-22T07:05:12;57.65;;;52.28;;
25111;SDS011;13092;51.996;4.458;2023-07-22T07:07:42;57.75;;;52.45;;
25111;SDS011;13092;51.996;4.458;2023-07-22T07:10:12;56.42;;;51.28;;
25111;SDS011;13092;51.996;4.458;2023-07-22T07:12:41;55.50;;;50.50;;
25111;SDS011;13092;51.996;4.458;2023-07-22T07:15:10;57.42;;;51.92;;
25111;SDS011;13092;51.996;4.458;2023-07-22T07:17:58;56.15;;;50.85;;
25111;SDS011;13092;51.996;4.458;2023-07-22T07:20:27;57.53;;;52.03;;
25111;SDS011;13092;51.996;4.458;2023-07-22T07:22:55;54.75;;;49.92;;
25111;SDS011;13092;51.996;4.458;2023-07-22T07:25:26;55.63;;;50.63;;
25111;SDS011;13092;51.996;4.458;2023-07-22T07:27:57;56.10;;;51.03;;
25111;SDS011;13092;51.996;4.458;2023-07-22T07:30:25;55.97;;;50.88;;
25111;SDS011;13092;51.996;4.458;2023-07-22T07:32:53;53.42;;;48.50;;
25111;SDS011;13092;51.996;4.458;2023-07-22T07:35:23;53.90;;;49.30;;
25111;SDS011;13092;51.996;4.458;2023-07-22T07:37:52;54.75;;;50.10;;
25111;SDS011;13092;51.996;4.458;2023-07-22T07:40:20;53.25;;;48.80;;
25111;SDS011;13092;51.996;4.458;2023-07-22T07:42:48;56.10;;;51.10;;
25111;SDS011;13092;51.996;4.458;2023-07-22T07:45:16;55.25;;;50.67;;
25111;SDS011;13092;51.996;4.458;2023-07-22T07:47:48;56.13;;;51.13;;
25111;SDS011;13092;51.996;4.458;2023-07-22T07:50:17;54.75;;;50.45;;
25111;SDS011;13092;51.996;4.458;2023-07-22T07:52:46;54.83;;;50.05;;
25111;SDS011;13092;51.996;4.458;2023-07-22T07:55:15;55.85;;;51.28;;
25111;SDS011;13092;51.996;4.458;2023-07-22T07:57:47;57.05;;;52.63;;
25111;SDS011;13092;51.996;4.458;2023-07-22T08:00:28;55.38;;;50.88;;
25111;SDS011;13092;51.996;4.458;2023-07-22T08:03:24;52.05;;;47.85;;
25111;SDS011;13092;51.996;4.458;2023-07-22T08:05:53;51.10;;;47.15;;
25111;SDS011;13092;51.996;4.458;2023-07-22T08:08:27;52.95;;;48.67;;
25111;SDS011;13092;51.996;4.458;2023-07-22T08:11:06;53.17;;;48.88;;
25111;SDS011;13092;51.996;4.458;2023-07-22T08:13:36;52.42;;;48.45;;
25111;SDS011;13092;51.996;4.458;2023-07-22T08:16:08;46.35;;;42.92;;
25111;SDS011;13092;51.996;4.458;2023-07-22T08:18:42;47.38;;;43.97;;
25111;SDS011;13092;51.996;4.458;2023-07-22T08:21:13;46.58;;;43.28;;
25111;SDS011;13092;51.996;4.458;2023-07-22T08:23:43;44.95;;;41.72;;
25111;SDS011;13092;51.996;4.458;2023-07-22T08:26:13;48.50;;;45.13;;
25111;SDS011;13092;51.996;4.458;2023-07-22T08:28:51;45.08;;;41.92;;
25111;SDS011;13092;51.996;4.458;2023-07-22T08:31:49;43.97;;;41.08;;
25111;SDS011;13092;51.996;4.458;2023-07-22T08:34:19;47.00;;;43.88;;
25111;SDS011;13092;51.996;4.458;2023-07-22T08:36:47;44.97;;;41.85;;
25111;SDS011;13092;51.996;4.458;2023-07-22T08:39:18;39.72;;;37.03;;
25111;SDS011;13092;51.996;4.458;2023-07-22T08:41:47;40.05;;;36.92;;
25111;SDS011;13092;51.996;4.458;2023-07-22T08:44:18;42.35;;;39.35;;
25111;SDS011;13092;51.996;4.458;2023-07-22T08:46:54;39.22;;;36.63;;
25111;SDS011;13092;51.996;4.458;2023-07-22T08:49:32;40.42;;;37.58;;
25111;SDS011;13092;51.996;4.458;2023-07-22T08:52:12;42.50;;;39.53;;
25111;SDS011;13092;51.996;4.458;2023-07-22T08:55:09;42.88;;;39.95;;
25111;SDS011;13092;51.996;4.458;2023-07-22T08:57:44;38.72;;;35.92;;
25111;SDS011;13092;51.996;4.458;2023-07-22T09:00:30;47.08;;;43.97;;
25111;SDS011;13092;51.996;4.458;2023-07-22T09:03:00;49.45;;;46.20;;
25111;SDS011;13092;51.996;4.458;2023-07-22T09:05:32;43.75;;;41.05;;
25111;SDS011;13092;51.996;4.458;2023-07-22T09:10:51;41.78;;;38.70;;
25111;SDS011;13092;51.996;4.458;2023-07-22T09:13:27;41.85;;;39.05;;
25111;SDS011;13092;51.996;4.458;2023-07-22T09:15:59;38.25;;;35.85;;
25111;SDS011;13092;51.996;4.458;2023-07-22T09:18:36;32.63;;;30.30;;
25111;SDS011;13092;51.996;4.458;2023-07-22T09:21:21;35.40;;;33.00;;
25111;SDS011;13092;51.996;4.458;2023-07-22T09:23:51;35.65;;;33.45;;
25111;SDS011;13092;51.996;4.458;2023-07-22T09:26:21;37.83;;;35.22;;
25111;SDS011;13092;51.996;4.458;2023-07-22T09:28:51;38.58;;;36.22;;
25111;SDS011;13092;51.996;4.458;2023-07-22T09:31:25;33.67;;;31.67;;
25111;SDS011;13092;51.996;4.458;2023-07-22T09:33:54;32.58;;;30.27;;
25111;SDS011;13092;51.996;4.458;2023-07-22T09:36:48;27.48;;;25.67;;
25111;SDS011;13092;51.996;4.458;2023-07-22T09:39:23;25.85;;;24.15;;
25111;SDS011;13092;51.996;4.458;2023-07-22T09:41:58;26.42;;;24.58;;
25111;SDS011;13092;51.996;4.458;2023-07-22T09:44:29;34.13;;;32.00;;
25111;SDS011;13092;51.996;4.458;2023-07-22T09:47:05;53.42;;;49.80;;
25111;SDS011;13092;51.996;4.458;2023-07-22T09:49:51;63.30;;;59.15;;
25111;SDS011;13092;51.996;4.458;2023-07-22T09:52:20;66.38;;;61.78;;
25111;SDS011;13092;51.996;4.458;2023-07-22T09:54:50;65.97;;;61.03;;
25111;SDS011;13092;51.996;4.458;2023-07-22T09:57:19;65.88;;;61.05;;
25111;SDS011;13092;51.996;4.458;2023-07-22T09:59:49;63.10;;;58.22;;
25111;SDS011;13092;51.996;4.458;2023-07-22T10:02:20;64.78;;;59.83;;
25111;SDS011;13092;51.996;4.458;2023-07-22T10:04:50;62.60;;;57.90;;
25111;SDS011;13092;51.996;4.458;2023-07-22T10:07:21;60.55;;;55.85;;
25111;SDS011;13092;51.996;4.458;2023-07-22T10:09:49;61.33;;;56.70;;
25111;SDS011;13092;51.996;4.458;2023-07-22T10:12:23;61.40;;;56.88;;
25111;SDS011;13092;51.996;4.458;2023-07-22T10:14:52;60.58;;;55.75;;
25111;SDS011;13092;51.996;4.458;2023-07-22T10:17:21;58.75;;;54.35;;
25111;SDS011;13092;51.996;4.458;2023-07-22T10:19:50;51.83;;;47.83;;
25111;SDS011;13092;51.996;4.458;2023-07-22T10:22:19;50.95;;;47.10;;
25111;SDS011;13092;51.996;4.458;2023-07-22T10:24:49;52.58;;;48.47;;
25111;SDS011;13092;51.996;4.458;2023-07-22T10:27:17;52.63;;;48.78;;
25111;SDS011;13092;51.996;4.458;2023-07-22T10:29:47;56.45;;;52.30;;
25111;SDS011;13092;51.996;4.458;2023-07-22T10:32:15;55.25;;;51.15;;
25111;SDS011;13092;51.996;4.458;2023-07-22T10:34:45;54.55;;;50.47;;
25111;SDS011;13092;51.996;4.458;2023-07-22T10:37:13;52.17;;;48.47;;
25111;SDS011;13092;51.996;4.458;2023-07-22T10:39:44;52.25;;;48.38;;
25111;SDS011;13092;51.996;4.458;2023-07-22T10:42:16;52.17;;;48.75;;
25111;SDS011;13092;51.996;4.458;2023-07-22T10:44:53;52.28;;;48.78;;
25111;SDS011;13092;51.996;4.458;2023-07-22T10:47:34;44.55;;;41.65;;
25111;SDS011;13092;51.996;4.458;2023-07-22T10:50:11;39.17;;;36.78;;
25111;SDS011;13092;51.996;4.458;2023-07-22T10:52:42;40.75;;;38.17;;
25111;SDS011;13092;51.996;4.458;2023-07-22T10:55:21;41.75;;;39.35;;
25111;SDS011;13092;51.996;4.458;2023-07-22T10:57:53;41.17;;;38.38;;
25111;SDS011;13092;51.996;4.458;2023-07-22T11:00:32;36.75;;;34.35;;
25111;SDS011;13092;51.996;4.458;2023-07-22T11:05:53;37.05;;;34.85;;
25111;SDS011;13092;51.996;4.458;2023-07-22T11:08:38;36.55;;;34.25;;
25111;SDS011;13092;51.996;4.458;2023-07-22T11:11:08;32.70;;;30.70;;
25111;SDS011;13092;51.996;4.458;2023-07-22T11:13:37;33.15;;;31.15;;
25111;SDS011;13092;51.996;4.458;2023-07-22T11:16:18;33.97;;;31.85;;
25111;SDS011;13092;51.996;4.458;2023-07-22T11:18:57;32.00;;;30.00;;
25111;SDS011;13092;51.996;4.458;2023-07-22T11:21:55;33.03;;;31.00;;
25111;SDS011;13092;51.996;4.458;2023-07-22T11:24:29;34.90;;;32.50;;
25111;SDS011;13092;51.996;4.458;2023-07-22T11:27:04;32.92;;;30.92;;
25111;SDS011;13092;51.996;4.458;2023-07-22T11:29:40;28.27;;;26.58;;
25111;SDS011;13092;51.996;4.458;2023-07-22T11:35:05;21.80;;;20.45;;
25111;SDS011;13092;51.996;4.458;2023-07-22T11:37:48;12.75;;;11.63;;
25111;SDS011;13092;51.996;4.458;2023-07-22T11:40:32;8.23;;;6.82;;
25111;SDS011;13092;51.996;4.458;2023-07-22T11:43:14;7.90;;;6.72;;
25111;SDS011;13092;51.996;4.458;2023-07-22T11:45:47;6.65;;;4.07;;
25111;SDS011;13092;51.996;4.458;2023-07-22T11:48:31;6.53;;;3.85;;
25111;SDS011;13092;51.996;4.458;2023-07-22T11:51:05;5.55;;;4.30;;
25111;SDS011;13092;51.996;4.458;2023-07-22T11:53:59;4.18;;;3.35;;
25111;SDS011;13092;51.996;4.458;2023-07-22T11:56:27;4.47;;;2.90;;
25111;SDS011;13092;51.996;4.458;2023-07-22T11:58:57;3.90;;;2.65;;
25111;SDS011;13092;51.996;4.458;2023-07-22T12:01:28;4.75;;;2.90;;
25111;SDS011;13092;51.996;4.458;2023-07-22T12:04:09;4.20;;;2.20;;
25111;SDS011;13092;51.996;4.458;2023-07-22T12:06:38;4.43;;;2.70;;
25111;SDS011;13092;51.996;4.458;2023-07-22T12:09:07;4.70;;;2.22;;
25111;SDS011;13092;51.996;4.458;2023-07-22T12:11:45;2.53;;;1.90;;
25111;SDS011;13092;51.996;4.458;2023-07-22T12:14:16;6.05;;;2.38;;
25111;SDS011;13092;51.996;4.458;2023-07-22T12:16:55;5.82;;;2.08;;
25111;SDS011;13092;51.996;4.458;2023-07-22T12:19:26;5.18;;;2.30;;
25111;SDS011;13092;51.996;4.458;2023-07-22T12:21:55;6.10;;;2.17;;
25111;SDS011;13092;51.996;4.458;2023-07-22T12:24:27;5.53;;;2.00;;
25111;SDS011;13092;51.996;4.458;2023-07-22T12:26:58;5.38;;;2.15;;
25111;SDS011;13092;51.996;4.458;2023-07-22T12:29:26;4.35;;;2.20;;
25111;SDS011;13092;51.996;4.458;2023-07-22T12:31:55;3.72;;;2.10;;
25111;SDS011;13092;51.996;4.458;2023-07-22T12:34:25;3.47;;;1.90;;
25111;SDS011;13092;51.996;4.458;2023-07-22T12:36:55;2.88;;;1.83;;
25111;SDS011;13092;51.996;4.458;2023-07-22T12:39:23;4.00;;;1.52;;
25111;SDS011;13092;51.996;4.458;2023-07-22T12:41:54;3.05;;;2.00;;
25111;SDS011;13092;51.996;4.458;2023-07-22T12:44:24;2.45;;;1.92;;
25111;SDS011;13092;51.996;4.458;2023-07-22T12:46:56;4.90;;;1.95;;
25111;SDS011;13092;51.996;4.458;2023-07-22T12:49:29;4.45;;;2.08;;
25111;SDS011;13092;51.996;4.458;2023-07-22T12:51:57;6.88;;;2.10;;
25111;SDS011;13092;51.996;4.458;2023-07-22T12:54:30;4.22;;;1.73;;
25111;SDS011;13092;51.996;4.458;2023-07-22T12:57:02;6.47;;;1.90;;
25111;SDS011;13092;51.996;4.458;2023-07-22T12:59:33;4.78;;;2.00;;
25111;SDS011;13092;51.996;4.458;2023-07-22T13:02:01;6.97;;;2.00;;
25111;SDS011;13092;51.996;4.458;2023-07-22T13:04:31;3.65;;;1.83;;
25111;SDS011;13092;51.996;4.458;2023-07-22T13:06:59;6.82;;;2.33;;
25111;SDS011;13092;51.996;4.458;2023-07-22T13:09:28;2.67;;;1.80;;
25111;SDS011;13092;51.996;4.458;2023-07-22T13:11:56;3.50;;;1.98;;
25111;SDS011;13092;51.996;4.458;2023-07-22T13:14:27;3.63;;;1.80;;
25111;SDS011;13092;51.996;4.458;2023-07-22T13:16:56;4.97;;;2.22;;
25111;SDS011;13092;51.996;4.458;2023-07-22T13:19:25;4.57;;;2.03;;
25111;SDS011;13092;51.996;4.458;2023-07-22T13:21:58;2.75;;;2.05;;
25111;SDS011;13092;51.996;4.458;2023-07-22T13:24:29;3.75;;;1.98;;
25111;SDS011;13092;51.996;4.458;2023-07-22T13:26:58;5.50;;;2.63;;
25111;SDS011;13092;51.996;4.458;2023-07-22T13:29:29;5.05;;;2.03;;
25111;SDS011;13092;51.996;4.458;2023-07-22T13:31:57;4.88;;;2.42;;
25111;SDS011;13092;51.996;4.458;2023-07-22T13:34:28;2.38;;;1.58;;
25111;SDS011;13092;51.996;4.458;2023-07-22T13:36:58;2.67;;;1.98;;
25111;SDS011;13092;51.996;4.458;2023-07-22T13:39:29;5.35;;;2.30;;
25111;SDS011;13092;51.996;4.458;2023-07-22T13:41:57;4.05;;;2.15;;
25111;SDS011;13092;51.996;4.458;2023-07-22T13:44:28;4.35;;;2.08;;
25111;SDS011;13092;51.996;4.458;2023-07-22T13:47:05;6.07;;;2.00;;
25111;SDS011;13092;51.996;4.458;2023-07-22T13:49:35;4.32;;;2.05;;
25111;SDS011;13092;51.996;4.458;2023-07-22T13:52:03;3.83;;;2.08;;
25111;SDS011;13092;51.996;4.458;2023-07-22T13:54:31;2.88;;;2.00;;
25111;SDS011;13092;51.996;4.458;2023-07-22T13:57:00;3.45;;;2.30;;
25111;SDS011;13092;51.996;4.458;2023-07-22T13:59:32;5.47;;;2.40;;
25111;SDS011;13092;51.996;4.458;2023-07-22T14:02:00;5.00;;;2.28;;
25111;SDS011;13092;51.996;4.458;2023-07-22T14:04:32;7.03;;;2.53;;
25111;SDS011;13092;51.996;4.458;2023-07-22T14:07:02;5.85;;;2.40;;
25111;SDS011;13092;51.996;4.458;2023-07-22T14:09:30;4.43;;;2.20;;
25111;SDS011;13092;51.996;4.458;2023-07-22T14:11:58;5.25;;;2.65;;
25111;SDS011;13092;51.996;4.458;2023-07-22T14:14:29;4.05;;;2.40;;
25111;SDS011;13092;51.996;4.458;2023-07-22T14:17:01;5.65;;;2.50;;
25111;SDS011;13092;51.996;4.458;2023-07-22T14:19:30;4.03;;;2.28;;
25111;SDS011;13092;51.996;4.458;2023-07-22T14:21:58;7.97;;;2.72;;
25111;SDS011;13092;51.996;4.458;2023-07-22T14:24:31;7.03;;;3.10;;
25111;SDS011;13092;51.996;4.458;2023-07-22T14:27:02;6.35;;;2.90;;
25111;SDS011;13092;51.996;4.458;2023-07-22T14:29:30;6.32;;;2.40;;
25111;SDS011;13092;51.996;4.458;2023-07-22T14:31:58;5.43;;;2.72;;
25111;SDS011;13092;51.996;4.458;2023-07-22T14:34:27;6.72;;;2.80;;
25111;SDS011;13092;51.996;4.458;2023-07-22T14:36:58;5.75;;;2.83;;
25111;SDS011;13092;51.996;4.458;2023-07-22T14:39:30;4.57;;;2.60;;
25111;SDS011;13092;51.996;4.458;2023-07-22T14:42:00;5.45;;;2.60;;
25111;SDS011;13092;51.996;4.458;2023-07-22T14:44:28;7.38;;;2.30;;
25111;SDS011;13092;51.996;4.458;2023-07-22T14:47:00;6.60;;;2.55;;
25111;SDS011;13092;51.996;4.458;2023-07-22T14:49:28;8.32;;;2.55;;
25111;SDS011;13092;51.996;4.458;2023-07-22T14:52:00;6.85;;;2.20;;
25111;SDS011;13092;51.996;4.458;2023-07-22T14:54:28;7.55;;;2.20;;
25111;SDS011;13092;51.996;4.458;2023-07-22T14:56:59;6.70;;;2.38;;
25111;SDS011;13092;51.996;4.458;2023-07-22T14:59:28;6.57;;;2.38;;